createdAt,value
2018-08-04T00:00:50.588Z,100981.91
2018-08-04T00:01:51.380Z,100981.67
2018-08-04T00:02:52.140Z,100981.38
2018-08-04T00:03:52.910Z,100981.13
2018-08-04T00:04:53.712Z,100980.93
2018-08-04T00:05:54.491Z,100980.42
2018-08-04T00:06:55.264Z,100980.16
2018-08-04T00:07:56.038Z,100979.90
2018-08-04T00:08:56.811Z,100979.64
2018-08-04T00:09:57.614Z,100979.20
2018-08-04T00:10:58.386Z,100979.08
2018-08-04T00:11:59.227Z,100979.13
2018-08-04T00:12:58.929Z,100978.87
2018-08-04T00:14:00.709Z,100978.78
2018-08-04T00:15:02.510Z,100978.17
2018-08-04T00:16:02.284Z,100978.05
2018-08-04T00:17:03.051Z,100977.66
2018-08-04T00:18:03.917Z,100977.57
2018-08-04T00:19:03.615Z,100977.55
2018-08-04T00:20:05.410Z,100976.95
2018-08-04T00:21:06.186Z,100977.16
2018-08-04T00:22:06.958Z,100977.00
2018-08-04T00:23:07.733Z,100976.45
2018-08-04T00:24:08.502Z,100976.37
2018-08-04T00:25:09.391Z,100976.27
2018-08-04T00:26:09.091Z,100976.64
2018-08-04T00:27:10.868Z,100976.63
2018-08-04T00:28:11.640Z,100976.09
2018-08-04T00:29:12.414Z,100975.91
2018-08-04T00:30:13.216Z,100975.86
2018-08-04T00:31:12.994Z,100975.84
2018-08-04T00:32:14.768Z,100975.14
2018-08-04T00:33:15.548Z,100974.50
2018-08-04T00:34:16.318Z,100974.45
2018-08-04T00:35:17.117Z,100974.23
2018-08-04T00:36:17.890Z,100973.97
2018-08-04T00:37:18.665Z,100973.21
2018-08-04T00:38:19.438Z,100972.43
2018-08-04T00:39:20.216Z,100971.97
2018-08-04T00:40:21.009Z,100971.27
2018-08-04T00:41:21.785Z,100970.35
2018-08-04T00:42:22.555Z,100969.58
2018-08-04T00:43:23.330Z,100968.17
2018-08-04T00:44:24.102Z,100967.64
2018-08-04T00:45:24.988Z,100967.36
2018-08-04T00:46:24.687Z,100966.16
2018-08-04T00:47:26.458Z,100965.82
2018-08-04T00:48:27.229Z,100964.68
2018-08-04T00:49:28.006Z,100964.17
2018-08-04T00:50:28.807Z,100962.81
2018-08-04T00:51:29.577Z,100961.94
2018-08-04T00:52:30.452Z,100961.42
2018-08-04T00:53:30.542Z,100959.86
2018-08-04T00:54:33.902Z,100958.64
2018-08-04T00:55:33.650Z,100957.60
2018-08-04T00:56:32.908Z,100956.73
2018-08-04T00:57:42.730Z,100944.55
2018-08-04T00:58:43.497Z,100938.51
2018-08-04T00:59:44.267Z,100938.51
2018-08-04T01:00:45.063Z,100938.51
2018-08-04T01:01:45.832Z,100939.62
2018-08-04T01:02:46.614Z,100939.10
2018-08-04T01:03:47.380Z,100938.68
2018-08-04T01:04:48.152Z,100938.44
2018-08-04T01:05:48.949Z,100938.25
2018-08-04T01:06:49.718Z,100938.09
2018-08-04T01:07:50.489Z,100937.71
2018-08-04T01:08:51.272Z,100937.98
2018-08-04T01:09:52.032Z,100938.17
2018-08-04T01:10:52.830Z,100937.47
2018-08-04T01:11:53.599Z,100937.88
2018-08-04T01:12:54.378Z,100938.20
2018-08-04T01:13:55.146Z,100937.70
2018-08-04T01:14:55.931Z,100938.37
2018-08-04T01:15:56.719Z,100939.09
2018-08-04T01:16:57.501Z,100939.32
2018-08-04T01:17:58.266Z,100939.90
2018-08-04T01:18:59.040Z,100940.44
2018-08-04T01:19:59.809Z,100941.28
2018-08-04T01:21:00.608Z,100942.52
2018-08-04T01:22:01.390Z,100943.36
2018-08-04T01:23:02.159Z,100943.94
2018-08-04T01:24:02.934Z,100944.65
2018-08-04T01:25:03.710Z,100945.59
2018-08-04T01:26:03.501Z,100946.49
2018-08-04T01:27:05.272Z,100947.36
2018-08-04T01:28:06.053Z,100947.50
2018-08-04T01:29:06.817Z,100947.50
2018-08-04T01:30:07.593Z,100947.51
2018-08-04T01:31:08.402Z,100947.03
2018-08-04T01:32:09.174Z,100947.16
2018-08-04T01:33:09.945Z,100947.31
2018-08-04T01:34:10.794Z,100947.22
2018-08-04T01:35:11.488Z,100947.55
2018-08-04T01:36:12.283Z,100947.70
2018-08-04T01:37:13.056Z,100947.68
2018-08-04T01:38:13.829Z,100947.76
2018-08-04T01:39:14.611Z,100947.40
2018-08-04T01:40:15.381Z,100947.17
2018-08-04T01:41:16.190Z,100947.08
2018-08-04T01:42:16.960Z,100946.68
2018-08-04T01:43:17.735Z,100946.36
2018-08-04T01:44:18.513Z,100946.27
2018-08-04T01:45:19.282Z,100946.34
2018-08-04T01:46:20.089Z,100946.67
2018-08-04T01:47:20.862Z,100945.98
2018-08-04T01:48:21.635Z,100945.89
2018-08-04T01:49:22.408Z,100946.39
2018-08-04T01:50:23.181Z,100946.02
2018-08-04T01:51:23.986Z,100945.77
2018-08-04T01:52:24.758Z,100945.12
2018-08-04T01:53:25.533Z,100945.37
2018-08-04T01:54:26.310Z,100944.95
2018-08-04T01:55:27.084Z,100944.58
2018-08-04T01:56:27.881Z,100944.54
2018-08-04T01:57:28.651Z,100943.73
2018-08-04T01:58:29.422Z,100943.42
2018-08-04T01:59:29.284Z,100942.97
2018-08-04T02:00:29.985Z,100942.85
2018-08-04T02:01:31.783Z,100942.81
2018-08-04T02:02:32.558Z,100941.77
2018-08-04T02:03:33.331Z,100941.31
2018-08-04T02:04:34.110Z,100940.86
2018-08-04T02:05:34.882Z,100941.03
2018-08-04T02:06:35.694Z,100941.28
2018-08-04T02:07:36.455Z,100941.25
2018-08-04T02:08:37.233Z,100940.60
2018-08-04T02:09:38.004Z,100940.61
2018-08-04T02:10:38.794Z,100940.69
2018-08-04T02:11:39.586Z,100940.86
2018-08-04T02:12:40.360Z,100941.58
2018-08-04T02:13:41.136Z,100942.11
2018-08-04T02:14:41.909Z,100942.45
2018-08-04T02:15:42.686Z,100942.31
2018-08-04T02:16:43.479Z,100942.15
2018-08-04T02:17:44.262Z,100942.19
2018-08-04T02:18:45.033Z,100942.28
2018-08-04T02:19:45.807Z,100942.00
2018-08-04T02:20:46.586Z,100941.96
2018-08-04T02:21:47.381Z,100941.30
2018-08-04T02:22:48.166Z,100941.02
2018-08-04T02:23:48.931Z,100941.22
2018-08-04T02:24:49.707Z,100940.77
2018-08-04T02:25:50.480Z,100940.77
2018-08-04T02:26:51.283Z,100940.69
2018-08-04T02:27:52.057Z,100940.14
2018-08-04T02:28:52.837Z,100940.04
2018-08-04T02:29:53.605Z,100940.37
2018-08-04T02:30:54.386Z,100940.27
2018-08-04T02:31:55.183Z,100940.25
2018-08-04T02:32:55.956Z,100940.16
2018-08-04T02:33:56.740Z,100940.14
2018-08-04T02:34:57.511Z,100939.88
2018-08-04T02:35:58.285Z,100939.85
2018-08-04T02:36:59.079Z,100939.75
2018-08-04T02:37:59.852Z,100939.76
2018-08-04T02:39:00.627Z,100939.76
2018-08-04T02:40:01.416Z,100939.11
2018-08-04T02:41:02.182Z,100939.23
2018-08-04T02:42:02.982Z,100938.59
2018-08-04T02:43:03.759Z,100938.17
2018-08-04T02:44:04.537Z,100937.98
2018-08-04T02:45:05.310Z,100937.61
2018-08-04T02:46:06.083Z,100937.34
2018-08-04T02:47:06.890Z,100937.17
2018-08-04T02:48:09.184Z,100937.08
2018-08-04T02:49:08.866Z,100936.98
2018-08-04T02:57:53.079Z,100950.00
2018-08-04T02:58:53.880Z,100948.36
2018-08-04T02:59:54.645Z,100948.02
2018-08-04T03:00:55.417Z,100948.19
2018-08-04T03:01:56.194Z,100948.03
2018-08-04T03:02:56.985Z,100947.79
2018-08-04T03:03:57.759Z,100947.96
2018-08-04T03:04:58.531Z,100947.77
2018-08-04T03:05:59.311Z,100947.86
2018-08-04T03:07:00.081Z,100947.57
2018-08-04T03:08:01.334Z,100947.99
2018-08-04T03:09:01.115Z,100947.92
2018-08-04T03:10:01.896Z,100947.84
2018-08-04T03:11:02.666Z,100948.19
2018-08-04T03:12:03.432Z,100948.61
2018-08-04T03:13:04.253Z,100948.85
2018-08-04T03:14:04.006Z,100949.23
2018-08-04T03:15:05.771Z,100949.31
2018-08-04T03:16:06.545Z,100949.91
2018-08-04T03:17:07.323Z,100949.73
2018-08-04T03:18:08.119Z,100950.71
2018-08-04T03:19:08.891Z,100950.94
2018-08-04T03:20:09.671Z,100951.30
2018-08-04T03:21:10.449Z,100951.99
2018-08-04T03:22:11.225Z,100952.41
2018-08-04T03:23:12.019Z,100952.59
2018-08-04T03:24:15.987Z,100953.16
2018-08-04T03:25:13.757Z,100953.42
2018-08-04T03:26:14.532Z,100954.16
2018-08-04T03:27:15.308Z,100954.45
2018-08-04T03:28:16.099Z,100954.92
2018-08-04T03:29:16.874Z,100954.75
2018-08-04T03:30:17.648Z,100955.59
2018-08-04T03:31:18.427Z,100955.84
2018-08-04T03:32:19.196Z,100956.72
2018-08-04T03:33:19.999Z,100957.22
2018-08-04T03:34:20.777Z,100957.47
2018-08-04T03:35:21.550Z,100957.95
2018-08-04T03:36:22.322Z,100958.45
2018-08-04T03:37:23.095Z,100958.87
2018-08-04T03:38:24.171Z,100959.21
2018-08-04T03:39:23.951Z,100959.25
2018-08-04T03:40:24.717Z,100960.01
2018-08-04T03:41:25.500Z,100960.45
2018-08-04T03:42:26.267Z,100960.50
2018-08-04T03:43:27.074Z,100961.41
2018-08-04T03:44:27.838Z,100961.71
2018-08-04T03:45:28.621Z,100962.16
2018-08-04T03:46:29.384Z,100962.45
2018-08-04T03:47:30.175Z,100962.84
2018-08-04T03:48:30.957Z,100963.23
2018-08-04T03:49:31.732Z,100963.68
2018-08-04T03:50:32.504Z,100963.88
2018-08-04T03:51:33.276Z,100964.52
2018-08-04T03:52:34.057Z,100964.72
2018-08-04T03:53:34.862Z,100965.18
2018-08-04T03:54:35.631Z,100965.45
2018-08-04T03:55:36.407Z,100965.99
2018-08-04T03:56:37.181Z,100966.48
2018-08-04T03:57:37.959Z,100966.91
2018-08-04T03:58:38.754Z,100967.59
2018-08-04T03:59:39.547Z,100968.06
2018-08-04T04:00:39.310Z,100969.02
2018-08-04T04:01:40.082Z,100969.41
2018-08-04T04:02:41.855Z,100969.78
2018-08-04T04:03:42.657Z,100970.13
2018-08-04T04:04:42.434Z,100970.86
2018-08-04T04:05:44.206Z,100971.34
2018-08-04T04:06:45.004Z,100972.67
2018-08-04T04:07:44.754Z,100972.77
2018-08-04T04:08:46.558Z,100972.97
2018-08-04T04:09:47.326Z,100973.09
2018-08-04T04:10:48.103Z,100973.23
2018-08-04T04:11:48.871Z,100973.66
2018-08-04T04:12:48.650Z,100974.07
2018-08-04T04:13:50.450Z,100973.80
2018-08-04T04:14:51.225Z,100974.20
2018-08-04T04:15:51.995Z,100974.00
2018-08-04T04:16:52.766Z,100973.50
2018-08-04T04:17:53.540Z,100973.73
2018-08-04T04:18:54.334Z,100973.41
2018-08-04T04:19:55.108Z,100973.11
2018-08-04T04:20:55.890Z,100973.20
2018-08-04T04:21:56.658Z,100973.53
2018-08-04T04:22:57.427Z,100973.97
2018-08-04T04:23:58.232Z,100973.84
2018-08-04T04:24:59.002Z,100974.34
2018-08-04T04:25:59.785Z,100974.61
2018-08-04T04:27:00.555Z,100974.97
2018-08-04T04:28:01.329Z,100975.20
2018-08-04T04:29:02.134Z,100975.56
2018-08-04T04:30:02.904Z,100975.80
2018-08-04T04:31:03.681Z,100975.87
2018-08-04T04:32:04.453Z,100976.39
2018-08-04T04:33:05.231Z,100976.52
2018-08-04T04:34:06.030Z,100976.85
2018-08-04T04:35:06.800Z,100977.27
2018-08-04T04:36:07.576Z,100978.02
2018-08-04T04:37:08.348Z,100978.44
2018-08-04T04:38:09.122Z,100979.18
2018-08-04T04:39:09.915Z,100980.50
2018-08-04T04:40:10.690Z,100981.41
2018-08-04T04:41:11.462Z,100982.34
2018-08-04T04:42:12.235Z,100983.08
2018-08-04T04:43:13.008Z,100983.61
2018-08-04T04:44:13.805Z,100984.40
2018-08-04T04:45:14.577Z,100985.41
2018-08-04T04:46:15.356Z,100985.87
2018-08-04T04:47:16.130Z,100986.64
2018-08-04T04:48:16.905Z,100986.81
2018-08-04T04:49:17.701Z,100987.16
2018-08-04T04:50:18.836Z,100986.91
2018-08-04T05:00:57.499Z,101000.45
2018-08-04T05:01:58.320Z,100999.40
2018-08-04T05:02:58.042Z,100999.05
2018-08-04T05:03:59.812Z,100998.92
2018-08-04T05:05:00.610Z,100998.78
2018-08-04T05:06:01.380Z,100998.36
2018-08-04T05:07:02.158Z,100999.03
2018-08-04T05:08:02.923Z,100999.20
2018-08-04T05:09:03.694Z,100999.99
2018-08-04T05:10:04.491Z,101000.09
2018-08-04T05:11:05.261Z,101000.66
2018-08-04T05:12:06.043Z,101001.25
2018-08-04T05:13:06.809Z,101001.33
2018-08-04T05:14:07.583Z,101001.89
2018-08-04T05:15:08.381Z,101001.77
2018-08-04T05:16:08.156Z,101002.82
2018-08-04T05:17:09.927Z,101002.66
2018-08-04T05:18:10.705Z,101003.27
2018-08-04T05:19:11.472Z,101003.63
2018-08-04T05:20:12.267Z,101004.16
2018-08-04T05:21:13.041Z,101005.16
2018-08-04T05:22:13.811Z,101005.55
2018-08-04T05:23:14.588Z,101005.23
2018-08-04T05:24:15.365Z,101006.02
2018-08-04T05:25:16.164Z,101005.77
2018-08-04T05:26:16.936Z,101005.92
2018-08-04T05:27:17.710Z,101006.41
2018-08-04T05:28:18.485Z,101006.95
2018-08-04T05:29:19.264Z,101007.66
2018-08-04T05:30:20.063Z,101008.20
2018-08-04T05:31:20.836Z,101008.25
2018-08-04T05:32:21.612Z,101008.28
2018-08-04T05:33:21.386Z,101008.89
2018-08-04T05:34:22.164Z,101008.99
2018-08-04T05:35:23.960Z,101009.13
2018-08-04T05:36:24.744Z,101009.31
2018-08-04T05:37:25.584Z,101009.50
2018-08-04T05:38:25.289Z,101009.70
2018-08-04T05:39:27.061Z,101009.63
2018-08-04T05:40:27.863Z,101010.14
2018-08-04T05:41:28.639Z,101010.23
2018-08-04T05:42:29.415Z,101010.19
2018-08-04T05:43:30.317Z,101010.34
2018-08-04T05:44:29.960Z,101011.14
2018-08-04T05:45:31.762Z,101011.13
2018-08-04T05:46:32.534Z,101011.41
2018-08-04T05:47:33.316Z,101012.27
2018-08-04T05:48:34.090Z,101012.70
2018-08-04T05:49:34.867Z,101012.89
2018-08-04T05:50:35.666Z,101013.97
2018-08-04T05:51:36.441Z,101015.00
2018-08-04T05:52:37.220Z,101015.69
2018-08-04T05:53:37.991Z,101016.78
2018-08-04T05:54:38.769Z,101017.14
2018-08-04T05:55:39.620Z,101017.71
2018-08-04T05:56:39.340Z,101018.57
2018-08-04T05:57:41.113Z,101018.79
2018-08-04T05:58:41.884Z,101020.14
2018-08-04T05:59:42.657Z,101021.47
2018-08-04T06:00:43.456Z,101022.18
2018-08-04T06:01:44.225Z,101023.38
2018-08-04T06:02:44.999Z,101025.36
2018-08-04T06:03:45.768Z,101026.44
2018-08-04T06:04:46.558Z,101026.95
2018-08-04T06:05:47.349Z,101028.10
2018-08-04T06:06:48.122Z,101028.91
2018-08-04T06:07:48.898Z,101029.40
2018-08-04T06:08:49.670Z,101030.13
2018-08-04T06:09:50.441Z,101030.19
2018-08-04T06:10:51.237Z,101030.89
2018-08-04T06:11:52.012Z,101031.32
2018-08-04T06:12:52.798Z,101031.66
2018-08-04T06:13:53.562Z,101031.47
2018-08-04T06:14:54.331Z,101031.95
2018-08-04T06:15:55.133Z,101031.86
2018-08-04T06:16:55.901Z,101032.12
2018-08-04T06:17:56.763Z,101031.92
2018-08-04T06:18:56.463Z,101031.81
2018-08-04T06:19:58.237Z,101031.78
2018-08-04T06:20:59.047Z,101031.78
2018-08-04T06:21:59.852Z,101031.80
2018-08-04T06:22:59.584Z,101031.24
2018-08-04T06:24:01.355Z,101030.88
2018-08-04T06:25:02.129Z,101030.95
2018-08-04T06:26:02.923Z,101030.64
2018-08-04T06:27:03.698Z,101030.50
2018-08-04T06:28:04.467Z,101030.77
2018-08-04T06:29:05.245Z,101030.31
2018-08-04T06:30:06.018Z,101030.16
2018-08-04T06:31:06.811Z,101030.08
2018-08-04T06:32:07.596Z,101030.25
2018-08-04T06:33:08.363Z,101030.20
2018-08-04T06:34:09.137Z,101030.75
2018-08-04T06:35:09.914Z,101031.03
2018-08-04T06:36:10.713Z,101031.34
2018-08-04T06:37:11.486Z,101032.05
2018-08-04T06:38:12.260Z,101032.40
2018-08-04T06:39:13.036Z,101033.34
2018-08-04T06:40:13.820Z,101034.03
2018-08-04T06:41:14.616Z,101034.48
2018-08-04T06:42:15.392Z,101035.03
2018-08-04T06:43:16.167Z,101035.56
2018-08-04T06:44:16.942Z,101035.68
2018-08-04T06:45:17.713Z,101036.38
2018-08-04T06:46:18.510Z,101036.92
2018-08-04T06:47:19.285Z,101037.31
2018-08-04T06:48:20.056Z,101037.58
2018-08-04T06:49:20.831Z,101037.41
2018-08-04T06:50:21.604Z,101037.48
2018-08-04T06:51:22.398Z,101037.61
2018-08-04T06:52:23.172Z,101037.47
2018-08-04T06:53:23.945Z,101037.77
2018-08-04T06:54:23.715Z,101038.12
2018-08-04T06:55:25.491Z,101037.97
2018-08-04T06:56:26.667Z,101037.94
2018-08-04T06:57:26.849Z,101037.78
2018-08-04T06:58:35.556Z,101016.52
2018-08-04T06:59:36.325Z,101017.66
2018-08-04T07:00:37.098Z,101018.08
2018-08-04T07:01:37.895Z,101018.38
2018-08-04T07:02:38.673Z,101019.15
2018-08-04T07:03:39.444Z,101019.38
2018-08-04T07:04:40.230Z,101020.05
2018-08-04T07:05:41.000Z,101020.34
2018-08-04T07:06:41.795Z,101019.94
2018-08-04T07:07:42.566Z,101019.94
2018-08-04T07:08:43.341Z,101019.69
2018-08-04T07:09:44.111Z,101019.10
2018-08-04T07:10:44.884Z,101019.18
2018-08-04T07:11:45.707Z,101020.16
2018-08-04T07:12:46.486Z,101019.78
2018-08-04T07:13:47.273Z,101019.91
2018-08-04T07:14:47.024Z,101019.87
2018-08-04T07:15:48.798Z,101019.83
2018-08-04T07:16:49.594Z,101019.91
2018-08-04T07:17:50.369Z,101020.13
2018-08-04T07:18:51.147Z,101020.19
2018-08-04T07:19:51.915Z,101020.21
2018-08-04T07:20:52.690Z,101020.06
2018-08-04T07:21:53.484Z,101019.47
2018-08-04T07:22:54.327Z,101019.45
2018-08-04T07:23:54.031Z,101019.01
2018-08-04T07:24:55.814Z,101018.14
2018-08-04T07:25:56.578Z,101017.58
2018-08-04T07:26:57.391Z,101016.67
2018-08-04T07:27:58.150Z,101016.41
2018-08-04T07:28:58.950Z,101015.73
2018-08-04T07:29:58.697Z,101014.98
2018-08-04T07:31:00.470Z,101014.02
2018-08-04T07:32:01.269Z,101013.80
2018-08-04T07:33:02.045Z,101013.77
2018-08-04T07:34:02.813Z,101013.55
2018-08-04T07:35:02.586Z,101013.97
2018-08-04T07:36:04.356Z,101013.93
2018-08-04T07:37:05.159Z,101013.54
2018-08-04T07:38:05.925Z,101013.23
2018-08-04T07:39:06.700Z,101012.59
2018-08-04T07:40:07.472Z,101012.39
2018-08-04T07:41:08.249Z,101011.84
2018-08-04T07:42:09.046Z,101011.62
2018-08-04T07:43:09.824Z,101010.96
2018-08-04T07:44:10.600Z,101010.39
2018-08-04T07:45:10.367Z,101010.21
2018-08-04T07:46:12.144Z,101009.72
2018-08-04T07:47:12.943Z,101008.45
2018-08-04T07:48:13.714Z,101007.57
2018-08-04T07:49:14.573Z,101007.23
2018-08-04T07:50:14.261Z,101006.95
2018-08-04T07:51:16.033Z,101006.48
2018-08-04T07:52:16.837Z,101006.25
2018-08-04T07:53:17.694Z,101006.34
2018-08-04T07:54:17.395Z,101006.66
2018-08-04T07:55:19.175Z,101006.70
2018-08-04T07:56:19.945Z,101007.16
2018-08-04T07:57:20.747Z,101007.55
2018-08-04T07:58:21.515Z,101007.98
2018-08-04T07:59:22.329Z,101008.35
2018-08-04T08:00:22.062Z,101009.84
2018-08-04T08:01:23.834Z,101010.58
2018-08-04T08:02:24.635Z,101011.22
2018-08-04T08:03:25.404Z,101011.59
2018-08-04T08:04:26.186Z,101011.73
2018-08-04T08:05:26.954Z,101012.84
2018-08-04T08:06:27.725Z,101012.96
2018-08-04T08:07:28.522Z,101012.97
2018-08-04T08:08:29.294Z,101012.98
2018-08-04T08:09:30.073Z,101012.61
2018-08-04T08:10:30.922Z,101012.84
2018-08-04T08:11:30.617Z,101012.66
2018-08-04T08:12:32.415Z,101011.97
2018-08-04T08:13:33.188Z,101011.23
2018-08-04T08:14:33.959Z,101010.75
2018-08-04T08:15:34.747Z,101009.86
2018-08-04T08:16:35.518Z,101009.11
2018-08-04T08:17:36.318Z,101008.99
2018-08-04T08:18:37.095Z,101008.03
2018-08-04T08:19:37.864Z,101007.88
2018-08-04T08:20:38.646Z,101007.45
2018-08-04T08:21:39.416Z,101007.30
2018-08-04T08:22:40.218Z,101007.28
2018-08-04T08:23:40.989Z,101007.08
2018-08-04T08:24:41.769Z,101007.46
2018-08-04T08:25:42.534Z,101008.22
2018-08-04T08:26:43.317Z,101008.58
2018-08-04T08:27:44.105Z,101009.07
2018-08-04T08:28:44.877Z,101008.92
2018-08-04T08:29:45.652Z,101008.86
2018-08-04T08:30:46.421Z,101008.30
2018-08-04T08:31:47.194Z,101008.08
2018-08-04T08:32:47.989Z,101007.64
2018-08-04T08:33:49.759Z,101007.05
2018-08-04T08:34:49.535Z,101006.76
2018-08-04T08:35:50.308Z,101006.18
2018-08-04T08:36:51.087Z,101005.94
2018-08-04T08:37:51.871Z,101005.70
2018-08-04T08:38:52.643Z,101005.00
2018-08-04T08:39:53.418Z,101004.30
2018-08-04T08:40:54.192Z,101003.90
2018-08-04T08:41:54.967Z,101003.05
2018-08-04T08:42:55.764Z,101002.81
2018-08-04T08:43:56.537Z,101002.66
2018-08-04T08:44:57.307Z,101002.59
2018-08-04T08:45:58.080Z,101002.70
2018-08-04T08:46:58.852Z,101002.83
2018-08-04T08:47:59.648Z,101003.14
2018-08-04T08:49:00.421Z,101003.74
2018-08-04T08:50:01.197Z,101004.28
2018-08-04T08:51:01.963Z,101005.14
2018-08-04T08:52:02.735Z,101005.85
2018-08-04T08:53:04.944Z,101006.80
2018-08-04T08:54:04.256Z,101007.40
2018-08-04T08:55:03.272Z,101008.09
2018-08-04T08:56:03.463Z,101008.91
2018-08-04T08:59:18.091Z,101014.16
2018-08-04T09:00:19.841Z,101006.09
2018-08-04T09:01:19.673Z,101005.63
2018-08-04T09:02:19.383Z,101005.35
2018-08-04T09:03:21.244Z,101005.28
2018-08-04T09:04:20.967Z,101005.21
2018-08-04T09:05:22.735Z,101004.94
2018-08-04T09:06:23.509Z,101005.05
2018-08-04T09:07:24.276Z,101005.08
2018-08-04T09:08:25.049Z,101005.06
2018-08-04T09:09:25.846Z,101005.22
2018-08-04T09:10:26.619Z,101005.80
2018-08-04T09:11:27.390Z,101006.27
2018-08-04T09:12:28.161Z,101006.87
2018-08-04T09:13:28.933Z,101006.47
2018-08-04T09:14:29.728Z,101006.41
2018-08-04T09:15:30.507Z,101006.47
2018-08-04T09:16:31.279Z,101006.28
2018-08-04T09:17:32.049Z,101006.23
2018-08-04T09:18:33.068Z,101006.04
2018-08-04T09:19:32.787Z,101006.16
2018-08-04T09:20:34.563Z,101006.25
2018-08-04T09:21:35.332Z,101006.23
2018-08-04T09:22:36.106Z,101006.13
2018-08-04T09:23:36.875Z,101006.05
2018-08-04T09:24:37.674Z,101005.94
2018-08-04T09:25:38.449Z,101005.77
2018-08-04T09:26:39.221Z,101005.63
2018-08-04T09:27:39.993Z,101005.76
2018-08-04T09:28:40.767Z,101006.11
2018-08-04T09:29:41.565Z,101005.92
2018-08-04T09:30:42.390Z,101006.12
2018-08-04T09:31:42.111Z,101006.52
2018-08-04T09:32:43.894Z,101006.53
2018-08-04T09:33:44.658Z,101006.06
2018-08-04T09:34:45.453Z,101006.59
2018-08-04T09:35:46.223Z,101006.87
2018-08-04T09:36:46.998Z,101006.59
2018-08-04T09:37:47.772Z,101006.48
2018-08-04T09:38:48.547Z,101006.47
2018-08-04T09:39:50.351Z,101006.36
2018-08-04T09:40:50.124Z,101006.06
2018-08-04T09:41:50.896Z,101006.21
2018-08-04T09:42:51.675Z,101006.31
2018-08-04T09:43:52.446Z,101005.19
2018-08-04T09:44:53.248Z,101005.06
2018-08-04T09:45:54.019Z,101004.69
2018-08-04T09:46:54.798Z,101004.48
2018-08-04T09:47:55.569Z,101004.02
2018-08-04T09:48:56.350Z,101004.20
2018-08-04T09:49:57.144Z,101003.59
2018-08-04T09:50:57.918Z,101003.44
2018-08-04T09:51:58.693Z,101004.18
2018-08-04T09:52:59.462Z,101003.80
2018-08-04T09:54:00.239Z,101003.91
2018-08-04T09:55:01.032Z,101003.80
2018-08-04T09:56:01.802Z,101004.08
2018-08-04T09:57:02.577Z,101004.06
2018-08-04T09:58:03.348Z,101003.58
2018-08-04T09:59:04.119Z,101003.56
2018-08-04T10:00:04.926Z,101003.50
2018-08-04T10:01:05.697Z,101003.52
2018-08-04T10:02:06.475Z,101003.42
2018-08-04T10:03:07.248Z,101003.42
2018-08-04T10:04:08.025Z,101003.42
2018-08-04T10:05:08.867Z,101003.37
2018-08-04T10:06:08.596Z,101003.07
2018-08-04T10:07:10.367Z,101003.35
2018-08-04T10:08:11.140Z,101003.22
2018-08-04T10:09:11.913Z,101003.90
2018-08-04T10:10:12.797Z,101003.49
2018-08-04T10:11:12.497Z,101004.00
2018-08-04T10:12:13.265Z,101004.48
2018-08-04T10:13:15.039Z,101004.91
2018-08-04T10:14:15.825Z,101005.13
2018-08-04T10:15:16.612Z,101005.77
2018-08-04T10:16:17.477Z,101006.16
2018-08-04T10:17:17.344Z,101006.22
2018-08-04T10:18:18.039Z,101006.27
2018-08-04T10:19:19.809Z,101005.95
2018-08-04T10:20:20.717Z,101005.89
2018-08-04T10:21:20.375Z,101005.40
2018-08-04T10:22:22.148Z,101005.73
2018-08-04T10:23:22.923Z,101005.89
2018-08-04T10:24:23.691Z,101005.38
2018-08-04T10:25:24.705Z,101005.08
2018-08-04T10:26:24.433Z,101005.30
2018-08-04T10:27:26.205Z,101004.77
2018-08-04T10:28:26.975Z,101003.97
2018-08-04T10:29:27.750Z,101003.50
2018-08-04T10:30:28.871Z,101003.43
2018-08-04T10:31:27.796Z,101003.22
2018-08-04T10:32:28.585Z,101002.73
2018-08-04T10:33:29.261Z,101002.41
2018-08-04T10:34:31.034Z,101002.55
2018-08-04T10:35:31.830Z,101002.06
2018-08-04T10:36:31.603Z,101001.88
2018-08-04T10:37:33.381Z,101001.42
2018-08-04T10:38:34.209Z,101000.86
2018-08-04T10:39:33.930Z,101000.50
2018-08-04T10:40:35.728Z,101000.29
2018-08-04T10:41:35.505Z,100999.96
2018-08-04T10:42:37.268Z,100999.50
2018-08-04T10:43:38.043Z,100999.16
2018-08-04T10:44:38.815Z,100998.01
2018-08-04T10:45:39.614Z,100996.95
2018-08-04T10:46:40.384Z,100996.06
2018-08-04T10:47:41.161Z,100995.70
2018-08-04T10:48:41.934Z,100995.42
2018-08-04T10:49:42.710Z,100994.38
2018-08-04T10:50:43.537Z,100993.56
2018-08-04T10:51:44.293Z,100992.37
2018-08-04T10:52:45.067Z,100991.62
2018-08-04T10:53:45.841Z,100990.60
2018-08-04T10:54:46.610Z,100990.27
2018-08-04T10:55:47.414Z,100989.32
2018-08-04T10:56:48.186Z,100988.73
2018-08-04T10:57:48.973Z,100988.27
2018-08-04T10:58:49.737Z,100987.91
2018-08-04T10:59:50.517Z,100987.32
2018-08-04T11:00:51.689Z,100986.25
2018-08-04T11:07:41.988Z,100987.70
2018-08-04T11:08:42.759Z,100975.20
2018-08-04T11:09:43.537Z,100975.44
2018-08-04T11:10:44.303Z,100975.50
2018-08-04T11:11:45.095Z,100975.55
2018-08-04T11:12:45.867Z,100975.11
2018-08-04T11:13:46.640Z,100975.28
2018-08-04T11:14:47.416Z,100975.58
2018-08-04T11:15:48.194Z,100975.25
2018-08-04T11:16:48.992Z,100975.27
2018-08-04T11:17:49.761Z,100975.31
2018-08-04T11:18:50.534Z,100975.28
2018-08-04T11:19:51.306Z,100975.70
2018-08-04T11:20:52.093Z,100974.97
2018-08-04T11:21:52.889Z,100975.56
2018-08-04T11:22:53.661Z,100975.53
2018-08-04T11:23:54.444Z,100975.05
2018-08-04T11:24:55.211Z,100974.91
2018-08-04T11:25:55.993Z,100974.59
2018-08-04T11:26:56.784Z,100974.69
2018-08-04T11:27:57.559Z,100974.73
2018-08-04T11:28:58.337Z,100974.65
2018-08-04T11:29:59.103Z,100975.28
2018-08-04T11:30:59.950Z,100975.40
2018-08-04T11:31:59.674Z,100975.55
2018-08-04T11:33:01.449Z,100975.93
2018-08-04T11:34:02.217Z,100975.61
2018-08-04T11:35:02.991Z,100975.47
2018-08-04T11:36:03.761Z,100975.68
2018-08-04T11:37:04.569Z,100975.42
2018-08-04T11:38:05.336Z,100974.94
2018-08-04T11:39:06.131Z,100974.28
2018-08-04T11:40:06.885Z,100973.77
2018-08-04T11:41:07.664Z,100973.30
2018-08-04T11:42:08.459Z,100972.15
2018-08-04T11:43:09.234Z,100971.32
2018-08-04T11:44:10.006Z,100971.08
2018-08-04T11:45:10.779Z,100970.81
2018-08-04T11:46:11.553Z,100969.95
2018-08-04T11:47:12.362Z,100969.30
2018-08-04T11:48:13.138Z,100967.53
2018-08-04T11:49:13.911Z,100966.81
2018-08-04T11:50:14.717Z,100965.65
2018-08-04T11:51:14.465Z,100964.93
2018-08-04T11:52:16.263Z,100963.27
2018-08-04T11:53:17.043Z,100962.16
2018-08-04T11:54:16.809Z,100961.56
2018-08-04T11:55:18.589Z,100960.41
2018-08-04T11:56:19.362Z,100959.48
2018-08-04T11:57:20.167Z,100959.09
2018-08-04T11:58:20.987Z,100958.12
2018-08-04T11:59:20.718Z,100957.53